createdAt,value
2017-11-23T13:51:38.397Z,93.81
2017-11-23T13:54:08.793Z,93.78
2017-11-23T13:56:44.418Z,93.55
2017-11-23T13:59:13.093Z,93.42
2017-11-23T14:01:41.801Z,93.35
2017-11-23T14:04:10.525Z,93.46
2017-11-23T14:06:38.911Z,93.46
2017-11-23T14:09:07.606Z,93.25
2017-11-23T14:11:36.269Z,93.22
2017-11-23T14:14:04.963Z,93.25
2017-11-23T14:16:33.593Z,93.27
2017-11-23T14:19:02.269Z,93.10
2017-11-23T14:21:30.931Z,92.67
2017-11-23T14:24:00.391Z,92.78
2017-11-23T14:26:29.059Z,92.84
2017-11-23T14:28:57.707Z,92.65
2017-11-23T14:31:26.391Z,92.89
2017-11-23T14:33:55.045Z,92.95
2017-11-23T14:36:23.732Z,92.88
2017-11-23T14:38:52.375Z,92.89
2017-11-23T14:41:21.061Z,92.75
2017-11-23T14:43:49.836Z,92.79
2017-11-23T14:46:18.484Z,92.76
2017-11-23T14:48:47.182Z,92.84
2017-11-23T14:51:15.856Z,92.85
2017-11-23T14:53:44.564Z,92.66
2017-11-23T14:56:13.220Z,92.91
2017-11-23T14:58:41.843Z,92.78
2017-11-23T15:01:10.510Z,92.69
2017-11-23T15:03:39.226Z,92.71
2017-11-23T15:06:07.934Z,92.84
2017-11-23T15:08:36.581Z,92.80
2017-11-23T15:11:05.265Z,92.94
2017-11-23T15:13:34.541Z,92.86
2017-11-23T15:16:03.173Z,92.87
2017-11-23T15:18:31.873Z,92.85
2017-11-23T15:21:00.514Z,92.89
2017-11-23T15:23:29.232Z,92.94
2017-11-23T15:25:57.864Z,92.95
2017-11-23T15:28:26.521Z,92.91
2017-11-23T15:30:55.199Z,92.85
2017-11-23T15:33:26.297Z,92.89
2017-11-23T15:35:54.945Z,92.84
2017-11-23T15:38:23.597Z,92.97
2017-11-23T15:40:52.281Z,92.87
2017-11-23T15:43:23.961Z,92.80
2017-11-23T15:45:52.652Z,92.93
2017-11-23T15:48:21.312Z,92.95
2017-11-23T15:50:49.980Z,93.04
2017-11-23T15:53:19.356Z,92.98
2017-11-23T15:55:48.013Z,92.89
2017-11-23T15:58:18.468Z,93.00
2017-11-23T16:00:47.836Z,92.97
2017-11-23T16:03:16.521Z,92.88
2017-11-23T16:05:45.209Z,92.79
2017-11-23T16:08:13.875Z,92.75
2017-11-23T16:10:42.516Z,92.82
2017-11-23T16:13:11.187Z,93.03
2017-11-23T16:15:39.887Z,92.96
2017-11-23T16:18:09.074Z,92.85
2017-11-23T16:20:37.714Z,92.89
2017-11-23T16:23:06.397Z,92.91
2017-11-23T16:25:35.412Z,92.91
2017-11-23T16:28:03.949Z,92.83
2017-11-23T16:30:32.453Z,92.81
2017-11-23T16:33:00.944Z,92.91
2017-11-23T16:35:36.818Z,92.93
2017-11-23T16:38:15.080Z,92.96
2017-11-23T16:40:59.447Z,92.97
2017-11-23T16:46:31.520Z,93.05
2017-11-23T16:49:16.366Z,93.06
2017-11-23T16:51:53.900Z,93.09
2017-11-23T16:54:37.378Z,93.21
2017-11-23T16:57:20.961Z,93.35
2017-11-23T17:00:11.245Z,93.70
2017-11-23T17:02:55.324Z,93.69
2017-11-23T17:05:40.439Z,93.80
2017-11-23T17:08:20.303Z,93.82
2017-11-23T17:11:02.994Z,93.92
2017-11-23T17:13:37.213Z,93.87
2017-11-23T17:16:21.381Z,93.94
2017-11-23T17:19:06.506Z,93.86
2017-11-23T17:21:49.517Z,93.91
2017-11-23T17:24:31.921Z,93.99
2017-11-23T17:27:15.675Z,94.00
2017-11-23T17:29:52.377Z,93.89
2017-11-23T17:32:35.346Z,93.94
2017-11-23T17:35:15.737Z,93.81
2017-11-23T17:37:59.282Z,93.64
2017-11-23T17:40:43.709Z,93.49
2017-11-23T17:43:12.832Z,93.17
2017-11-23T17:45:41.532Z,92.85
2017-11-23T17:48:13.679Z,92.55
2017-11-23T17:50:46.824Z,92.48
2017-11-23T17:53:15.487Z,92.20
2017-11-23T17:55:44.155Z,91.77
2017-11-23T17:58:12.865Z,91.07
2017-11-23T18:00:41.537Z,90.23
2017-11-23T18:03:10.368Z,90.10
2017-11-23T18:05:39.017Z,90.64
2017-11-23T18:08:07.716Z,90.25
2017-11-23T18:10:36.360Z,90.33
2017-11-23T18:13:05.063Z,90.07
2017-11-23T18:15:33.598Z,89.61
2017-11-23T18:18:02.238Z,89.79
2017-11-23T18:20:30.927Z,89.88
2017-11-23T18:22:59.568Z,89.22
2017-11-23T18:25:28.271Z,90.18
2017-11-23T18:27:56.968Z,90.36
2017-11-23T18:30:25.665Z,90.36
2017-11-23T18:32:54.297Z,90.32
2017-11-23T18:35:22.928Z,90.66
2017-11-23T18:37:51.608Z,90.46
2017-11-23T18:40:20.286Z,90.75
2017-11-23T18:42:48.970Z,90.79
2017-11-23T18:45:17.721Z,91.07
2017-11-23T18:47:46.394Z,90.58
2017-11-23T18:50:15.106Z,90.17
2017-11-23T18:52:43.793Z,90.70
2017-11-23T18:55:13.283Z,90.59
2017-11-23T18:57:41.973Z,90.63
2017-11-23T19:00:10.697Z,91.04
2017-11-23T19:02:39.353Z,90.63
2017-11-23T19:05:08.028Z,90.97
2017-11-23T19:07:36.682Z,90.90
2017-11-23T19:10:05.390Z,91.36
2017-11-23T19:12:34.040Z,91.35
2017-11-23T19:15:02.684Z,91.07
2017-11-23T19:17:31.384Z,91.11
2017-11-23T19:20:00.040Z,90.97
2017-11-23T19:22:28.723Z,91.33
2017-11-23T19:24:57.403Z,91.43
2017-11-23T19:27:26.138Z,91.35
2017-11-23T19:29:54.810Z,91.47
2017-11-23T19:32:23.500Z,91.34
2017-11-23T19:34:52.183Z,91.20
2017-11-23T19:37:20.832Z,91.55
2017-11-23T19:39:49.583Z,91.52
2017-11-23T19:42:18.215Z,91.72
2017-11-23T19:44:46.885Z,91.62
2017-11-23T19:47:15.583Z,91.74
2017-11-23T19:49:44.231Z,91.83
2017-11-23T19:52:12.913Z,91.89
2017-11-23T19:54:41.582Z,91.91
2017-11-23T19:57:10.279Z,91.87
2017-11-23T19:59:38.985Z,91.93
2017-11-23T20:02:07.707Z,91.90
2017-11-23T20:04:36.352Z,91.93
2017-11-23T20:07:05.048Z,92.01
2017-11-23T20:09:33.745Z,91.98
2017-11-23T20:12:02.415Z,91.97
2017-11-23T20:14:31.100Z,91.98
2017-11-23T20:16:59.776Z,92.04
2017-11-23T20:19:28.465Z,92.04
2017-11-23T20:21:57.113Z,92.02
2017-11-23T20:24:25.837Z,92.07
2017-11-23T20:26:54.464Z,92.10
2017-11-23T20:29:23.111Z,92.08
2017-11-23T20:31:51.861Z,92.00
2017-11-23T20:34:20.504Z,91.62
2017-11-23T20:36:49.192Z,91.96
2017-11-23T20:39:17.868Z,92.07
2017-11-23T20:41:46.533Z,91.99
2017-11-23T20:44:15.225Z,92.06
2017-11-23T20:46:43.875Z,92.04
2017-11-23T20:49:12.571Z,91.88
2017-11-23T20:51:41.286Z,92.04
2017-11-23T20:54:09.939Z,92.12
2017-11-23T20:56:38.634Z,92.04
2017-11-23T20:59:07.277Z,92.02
2017-11-23T21:01:35.969Z,92.08
2017-11-23T21:04:04.648Z,92.12
2017-11-23T21:06:33.201Z,92.17
2017-11-23T21:09:01.729Z,92.17
2017-11-23T21:11:30.372Z,92.17
2017-11-23T21:13:59.060Z,92.13
2017-11-23T21:16:27.751Z,92.18
2017-11-23T21:18:56.431Z,92.17
2017-11-23T21:21:25.105Z,92.16
2017-11-23T21:23:53.788Z,92.20
2017-11-23T21:26:22.421Z,92.24
2017-11-23T21:28:51.108Z,92.25
2017-11-23T21:31:19.757Z,92.25
2017-11-23T21:33:48.444Z,92.21
2017-11-23T21:36:17.126Z,92.16
2017-11-23T21:38:45.800Z,92.25
2017-11-23T21:41:14.483Z,92.26
2017-11-23T21:43:43.178Z,92.18
2017-11-23T21:46:11.832Z,92.24
2017-11-23T21:48:40.534Z,92.23
2017-11-23T21:51:09.175Z,92.28
2017-11-23T21:53:37.813Z,92.28
2017-11-23T21:56:06.538Z,92.18
2017-11-23T21:58:35.177Z,92.27
2017-11-23T22:01:03.888Z,92.20
2017-11-23T22:03:38.065Z,92.25
2017-11-23T22:06:06.742Z,92.23
2017-11-23T22:08:45.013Z,92.02
2017-11-23T22:11:23.568Z,92.14
2017-11-23T22:16:53.210Z,92.18
2017-11-23T22:19:28.450Z,92.15
2017-11-23T22:21:58.804Z,92.25
2017-11-23T22:24:37.596Z,92.29
2017-11-23T22:27:19.135Z,92.21
2017-11-23T22:29:59.338Z,92.21
2017-11-23T22:32:44.115Z,92.21
2017-11-23T22:35:20.351Z,92.26
2017-11-23T22:37:48.857Z,92.08
2017-11-23T22:40:17.612Z,92.18
2017-11-23T22:42:59.994Z,92.11
2017-11-23T22:45:46.046Z,92.16
2017-11-23T22:48:32.536Z,92.10
2017-11-23T22:51:17.762Z,92.17
2017-11-23T22:54:09.717Z,92.17
2017-11-23T22:56:55.228Z,92.17
2017-11-23T22:59:40.975Z,92.13
2017-11-23T23:02:25.658Z,92.17
2017-11-23T23:05:08.295Z,92.02
2017-11-23T23:07:51.855Z,92.18
2017-11-23T23:10:37.031Z,92.19
2017-11-23T23:13:20.551Z,92.18
2017-11-23T23:16:07.543Z,92.17
2017-11-23T23:18:53.830Z,92.11
2017-11-23T23:21:40.263Z,92.17
2017-11-23T23:24:25.309Z,92.10
2017-11-23T23:27:13.829Z,92.19
2017-11-23T23:29:44.415Z,92.19
2017-11-23T23:32:13.152Z,92.17
2017-11-23T23:34:41.801Z,92.23
2017-11-23T23:37:10.505Z,92.26
2017-11-23T23:39:39.180Z,92.25
2017-11-23T23:42:07.884Z,92.17
2017-11-23T23:44:36.517Z,92.17
2017-11-23T23:47:05.167Z,92.22
2017-11-23T23:49:33.850Z,92.20
2017-11-23T23:52:02.480Z,92.22
2017-11-23T23:54:31.194Z,92.26
2017-11-23T23:56:59.865Z,92.24
2017-11-23T23:59:28.552Z,92.27
